createdAt,value
2022-10-06T00:02:08.839Z,12.90
2022-10-06T00:04:35.686Z,12.80
2022-10-06T00:07:02.406Z,12.80
2022-10-06T00:09:29.137Z,12.70
2022-10-06T00:11:56.041Z,12.70
2022-10-06T00:14:22.775Z,12.70
2022-10-06T00:16:49.607Z,12.70
2022-10-06T00:19:16.326Z,12.70
2022-10-06T00:21:43.110Z,12.70
2022-10-06T00:24:09.846Z,12.70
2022-10-06T00:26:37.620Z,12.60
2022-10-06T00:29:04.371Z,12.70
2022-10-06T00:31:31.112Z,12.70
2022-10-06T00:33:57.872Z,12.70
2022-10-06T00:36:24.604Z,12.70
2022-10-06T00:38:51.395Z,12.60
2022-10-06T00:41:18.157Z,12.60
2022-10-06T00:43:51.724Z,12.60
2022-10-06T00:46:18.483Z,12.60
2022-10-06T00:48:45.920Z,12.60
2022-10-06T00:51:12.688Z,12.50
2022-10-06T00:53:39.427Z,12.50
2022-10-06T00:56:06.246Z,12.50
2022-10-06T00:58:32.992Z,12.40
2022-10-06T01:00:59.743Z,12.40
2022-10-06T01:03:37.135Z,12.50
2022-10-06T01:06:03.980Z,12.40
2022-10-06T01:08:31.411Z,12.40
2022-10-06T01:10:58.453Z,12.30
2022-10-06T01:13:25.281Z,12.30
2022-10-06T01:15:55.086Z,12.20
2022-10-06T01:18:22.472Z,12.20
2022-10-06T01:20:51.695Z,12.20
2022-10-06T01:23:18.450Z,12.10
2022-10-06T01:25:45.195Z,12.00
2022-10-06T01:28:11.993Z,12.00
2022-10-06T01:30:52.904Z,12.00
2022-10-06T01:33:20.157Z,12.10
2022-10-06T01:35:48.177Z,12.00
2022-10-06T01:38:14.979Z,12.00
2022-10-06T01:40:41.719Z,12.00
2022-10-06T01:43:08.442Z,12.00
2022-10-06T01:45:35.207Z,11.90
2022-10-06T01:48:01.962Z,12.00
2022-10-06T01:50:28.719Z,12.00
2022-10-06T01:52:57.486Z,12.00
2022-10-06T01:55:24.671Z,12.10
2022-10-06T01:57:51.522Z,12.10
2022-10-06T02:00:19.073Z,12.10
2022-10-06T02:02:45.858Z,12.10
2022-10-06T02:05:12.701Z,12.00
2022-10-06T02:07:39.434Z,12.00
2022-10-06T02:10:06.369Z,12.00
2022-10-06T02:12:33.115Z,12.00
2022-10-06T02:14:59.844Z,11.90
2022-10-06T02:17:26.650Z,11.90
2022-10-06T02:19:53.365Z,11.90
2022-10-06T02:22:20.168Z,11.80
2022-10-06T02:24:46.889Z,11.80
2022-10-06T02:27:13.625Z,11.80
2022-10-06T02:29:40.424Z,11.70
2022-10-06T02:32:07.166Z,11.70
2022-10-06T02:34:33.885Z,11.70
2022-10-06T02:37:00.599Z,11.60
2022-10-06T02:39:27.329Z,11.60
2022-10-06T02:41:54.074Z,11.50
2022-10-06T02:44:21.242Z,11.60
2022-10-06T02:46:48.288Z,11.60
2022-10-06T02:49:15.054Z,11.60
2022-10-06T02:51:41.770Z,11.60
2022-10-06T02:54:08.824Z,11.70
2022-10-06T02:56:35.723Z,11.70
2022-10-06T02:59:02.479Z,11.60
2022-10-06T03:01:29.432Z,11.70
2022-10-06T03:03:56.170Z,11.60
2022-10-06T03:06:23.994Z,11.70
2022-10-06T03:09:11.075Z,11.70
2022-10-06T03:11:38.805Z,11.60
2022-10-06T03:14:05.795Z,11.70
2022-10-06T03:16:36.321Z,11.70
2022-10-06T03:19:03.668Z,11.60
2022-10-06T03:21:31.113Z,11.60
2022-10-06T03:23:57.942Z,11.60
2022-10-06T03:26:29.083Z,11.60
2022-10-06T03:28:56.090Z,11.60
2022-10-06T03:31:23.064Z,11.60
2022-10-06T03:33:50.792Z,11.50
2022-10-06T03:36:18.456Z,11.50
2022-10-06T03:38:45.188Z,11.50
2022-10-06T03:41:18.592Z,11.50
2022-10-06T03:43:45.687Z,11.40
2022-10-06T03:46:12.884Z,11.40
2022-10-06T03:48:39.674Z,11.40
2022-10-06T03:51:07.328Z,11.40
2022-10-06T03:53:34.432Z,11.40
2022-10-06T03:56:28.379Z,11.30
2022-10-06T03:58:56.137Z,11.40
2022-10-06T04:01:26.707Z,11.30
2022-10-06T04:03:56.867Z,11.30
2022-10-06T04:06:23.712Z,11.30
2022-10-06T04:08:50.666Z,11.20
2022-10-06T04:11:18.424Z,11.20
2022-10-06T04:13:45.360Z,11.10
2022-10-06T04:16:12.197Z,11.20
2022-10-06T04:18:39.226Z,11.10
2022-10-06T04:21:06.077Z,11.10
2022-10-06T04:23:32.859Z,11.00
2022-10-06T04:26:00.022Z,11.00
2022-10-06T04:28:27.226Z,11.00
2022-10-06T04:31:00.662Z,11.00
2022-10-06T04:33:27.585Z,10.90
2022-10-06T04:35:58.340Z,10.90
2022-10-06T04:38:25.236Z,10.90
2022-10-06T04:40:52.130Z,10.80
2022-10-06T04:43:18.880Z,10.80
2022-10-06T04:45:45.801Z,10.80
2022-10-06T04:48:12.568Z,10.80
2022-10-06T04:50:39.273Z,10.80
2022-10-06T04:53:06.050Z,10.70
2022-10-06T04:55:32.851Z,10.70
2022-10-06T04:57:59.595Z,10.70
2022-10-06T05:00:26.899Z,10.70
2022-10-06T05:02:54.474Z,10.70
2022-10-06T05:05:21.306Z,10.70
2022-10-06T05:07:48.144Z,10.80
2022-10-06T05:10:14.975Z,10.80
2022-10-06T05:12:41.683Z,10.90
2022-10-06T05:15:09.773Z,11.10
2022-10-06T05:17:36.502Z,11.20
2022-10-06T05:20:03.616Z,11.40
2022-10-06T05:22:31.163Z,11.60
2022-10-06T05:24:57.896Z,11.80
2022-10-06T05:27:24.626Z,12.10
2022-10-06T05:29:51.887Z,12.30
2022-10-06T05:32:18.863Z,12.50
2022-10-06T05:34:45.631Z,12.90
2022-10-06T05:37:12.391Z,13.20
2022-10-06T05:39:39.119Z,13.50
2022-10-06T05:42:05.860Z,13.80
2022-10-06T05:44:32.787Z,14.20
2022-10-06T05:46:59.550Z,14.50
2022-10-06T05:49:26.276Z,15.00
2022-10-06T05:51:53.268Z,15.60
2022-10-06T05:54:20.024Z,16.20
2022-10-06T05:56:46.805Z,16.50
2022-10-06T05:59:13.602Z,17.00
2022-10-06T06:01:40.976Z,17.50
2022-10-06T06:04:08.634Z,18.10
2022-10-06T06:06:36.088Z,18.70
2022-10-06T06:09:04.226Z,19.30
2022-10-06T06:11:31.654Z,20.00
2022-10-06T06:13:58.867Z,20.40
2022-10-06T06:16:25.700Z,20.80
2022-10-06T06:18:52.505Z,21.30
2022-10-06T06:21:19.257Z,21.80
2022-10-06T06:23:46.789Z,21.80
2022-10-06T06:26:14.402Z,21.70
2022-10-06T06:28:41.577Z,21.60
2022-10-06T06:31:09.316Z,21.50
2022-10-06T06:33:39.336Z,21.70
2022-10-06T06:36:35.752Z,21.80
2022-10-06T06:39:04.213Z,22.30
2022-10-06T06:41:33.682Z,22.30
2022-10-06T06:44:00.508Z,22.60
2022-10-06T06:46:28.328Z,22.70
2022-10-06T06:48:55.382Z,22.50
2022-10-06T06:51:24.324Z,23.10
2022-10-06T06:53:51.326Z,23.90
2022-10-06T06:56:18.068Z,24.10
2022-10-06T06:58:47.546Z,24.20
2022-10-06T07:01:15.050Z,24.10
2022-10-06T07:03:58.553Z,23.90
2022-10-06T07:06:28.684Z,23.90
2022-10-06T07:08:56.257Z,24.10
2022-10-06T07:11:32.865Z,24.20
2022-10-06T07:14:01.400Z,24.20
2022-10-06T07:16:47.492Z,24.00
2022-10-06T07:19:32.701Z,24.30
2022-10-06T07:22:19.108Z,25.00
2022-10-06T07:25:04.849Z,26.00
2022-10-06T07:27:31.957Z,26.60
2022-10-06T07:29:58.674Z,27.10
2022-10-06T07:32:25.802Z,27.60
2022-10-06T07:34:52.788Z,27.60
2022-10-06T07:37:19.825Z,27.90
2022-10-06T07:39:49.860Z,27.90
2022-10-06T07:42:17.115Z,27.90
2022-10-06T07:44:44.270Z,27.90
2022-10-06T07:47:10.995Z,28.10
2022-10-06T07:49:37.795Z,28.20
2022-10-06T07:52:04.551Z,28.10
2022-10-06T07:54:31.321Z,28.20
2022-10-06T07:56:58.045Z,28.10
2022-10-06T07:59:24.789Z,28.10
2022-10-06T08:01:52.957Z,28.20
2022-10-06T08:04:19.784Z,28.40
2022-10-06T08:06:47.790Z,28.80
2022-10-06T08:09:14.541Z,29.00
2022-10-06T08:11:41.338Z,29.30
2022-10-06T08:14:08.093Z,29.70
2022-10-06T08:16:34.837Z,29.40
2022-10-06T08:19:01.651Z,29.10
2022-10-06T08:21:29.228Z,29.10
2022-10-06T08:23:56.732Z,29.20
2022-10-06T08:26:23.906Z,29.30
2022-10-06T08:28:51.353Z,29.40
2022-10-06T08:31:18.852Z,29.70
2022-10-06T08:33:45.772Z,29.70
2022-10-06T08:36:14.833Z,29.50
2022-10-06T08:38:41.628Z,29.50
2022-10-06T08:41:23.841Z,29.80
2022-10-06T08:43:56.708Z,30.40
2022-10-06T08:46:24.896Z,30.80
2022-10-06T08:48:51.896Z,30.60
2022-10-06T08:51:39.011Z,30.40
2022-10-06T08:54:11.454Z,31.00
2022-10-06T08:56:45.070Z,31.50
2022-10-06T08:59:12.161Z,32.00
2022-10-06T09:01:43.543Z,32.40
2022-10-06T09:04:10.980Z,32.40
2022-10-06T09:06:40.765Z,33.00
2022-10-06T09:09:14.201Z,33.40
2022-10-06T09:11:52.936Z,33.60
2022-10-06T09:14:21.070Z,33.40
2022-10-06T09:16:49.220Z,33.20
2022-10-06T09:19:18.264Z,33.20
2022-10-06T09:21:49.867Z,33.10
2022-10-06T09:24:17.356Z,33.10
2022-10-06T09:26:45.528Z,33.10
2022-10-06T09:29:12.567Z,33.10
2022-10-06T09:31:43.259Z,33.10
2022-10-06T09:34:10.176Z,33.40
2022-10-06T09:37:00.262Z,33.70
2022-10-06T09:39:32.611Z,33.80
2022-10-06T09:42:03.695Z,33.60
2022-10-06T09:44:31.750Z,33.40
2022-10-06T09:46:58.470Z,33.70
2022-10-06T09:49:26.040Z,33.60
2022-10-06T09:51:58.775Z,33.50
2022-10-06T09:54:25.659Z,33.10
2022-10-06T09:56:55.510Z,33.30
2022-10-06T09:59:22.939Z,33.40
2022-10-06T10:01:53.151Z,33.70
2022-10-06T10:04:22.354Z,33.70
2022-10-06T10:06:49.103Z,33.70
2022-10-06T10:09:22.792Z,33.50
2022-10-06T10:12:20.409Z,33.40
2022-10-06T10:14:47.564Z,33.20
2022-10-06T10:17:21.617Z,33.20
2022-10-06T10:19:55.070Z,33.60
2022-10-06T10:22:23.512Z,34.20
2022-10-06T10:24:50.234Z,34.40
2022-10-06T10:27:20.450Z,34.80
2022-10-06T10:29:47.276Z,35.10
2022-10-06T10:32:18.935Z,35.00
2022-10-06T10:35:00.948Z,35.00
2022-10-06T10:37:33.607Z,35.20
2022-10-06T10:40:18.821Z,35.20
2022-10-06T10:42:48.591Z,35.10
2022-10-06T10:45:19.558Z,34.40
2022-10-06T10:47:46.341Z,33.90
2022-10-06T10:50:19.481Z,32.90
2022-10-06T10:52:46.904Z,32.10
2022-10-06T10:55:23.404Z,31.30
2022-10-06T10:57:50.368Z,31.00
2022-10-06T11:00:21.185Z,30.50
2022-10-06T11:02:48.067Z,29.80
2022-10-06T11:05:23.080Z,29.30
2022-10-06T11:07:58.476Z,29.00
2022-10-06T11:10:26.293Z,28.70
2022-10-06T11:12:53.006Z,28.40
2022-10-06T11:15:19.763Z,28.20
2022-10-06T11:17:50.482Z,28.10
2022-10-06T11:20:36.882Z,27.90
2022-10-06T11:23:22.375Z,27.60
2022-10-06T11:25:53.202Z,27.50
2022-10-06T11:28:29.112Z,27.40
2022-10-06T11:30:58.716Z,27.20
2022-10-06T11:33:44.207Z,27.10
2022-10-06T11:36:12.265Z,27.00
2022-10-06T11:38:49.753Z,26.90
2022-10-06T11:41:24.218Z,26.80
2022-10-06T11:44:00.680Z,26.50
2022-10-06T11:46:36.488Z,26.20
2022-10-06T11:49:22.568Z,26.00
2022-10-06T11:51:49.285Z,25.70
2022-10-06T11:54:34.975Z,25.50
2022-10-06T11:57:01.688Z,25.30
2022-10-06T11:59:30.358Z,25.10
2022-10-06T12:01:57.617Z,25.00
2022-10-06T12:04:26.416Z,25.10
2022-10-06T12:06:54.072Z,25.20
2022-10-06T12:09:32.860Z,25.30
2022-10-06T12:12:00.316Z,25.50
2022-10-06T12:16:00.047Z,25.60
2022-10-06T12:17:19.018Z,25.70
2022-10-06T12:19:54.878Z,25.60
2022-10-06T12:22:22.661Z,25.40
2022-10-06T12:25:06.076Z,25.40
2022-10-06T12:27:45.025Z,25.40
2022-10-06T12:30:15.321Z,25.40
2022-10-06T12:32:47.202Z,25.20
2022-10-06T12:35:13.965Z,25.10
2022-10-06T12:37:41.722Z,25.10
2022-10-06T12:40:27.246Z,25.20
2022-10-06T12:42:56.413Z,25.20
2022-10-06T12:45:23.146Z,25.30
2022-10-06T12:47:49.851Z,25.30
2022-10-06T12:50:16.590Z,25.30
2022-10-06T12:52:48.153Z,25.20
2022-10-06T12:55:21.356Z,25.00
2022-10-06T12:57:48.774Z,24.90
2022-10-06T13:00:22.467Z,24.70
2022-10-06T13:02:49.267Z,24.60
2022-10-06T13:05:16.011Z,24.70
2022-10-06T13:07:58.050Z,24.70
2022-10-06T13:10:24.912Z,24.80
2022-10-06T13:12:52.627Z,24.80
2022-10-06T13:15:23.810Z,24.70
2022-10-06T13:17:53.750Z,24.70
2022-10-06T13:20:21.673Z,24.80
2022-10-06T13:23:07.543Z,24.90
2022-10-06T13:25:46.562Z,25.00
2022-10-06T13:28:26.873Z,25.10
2022-10-06T13:30:54.337Z,25.10
2022-10-06T13:33:21.128Z,25.00
2022-10-06T13:35:48.884Z,24.90
2022-10-06T13:38:15.604Z,24.80
2022-10-06T13:40:44.938Z,24.70
2022-10-06T13:43:14.282Z,24.70
2022-10-06T13:45:41.649Z,24.70
2022-10-06T13:48:11.605Z,24.70
2022-10-06T13:50:41.813Z,24.70
2022-10-06T13:53:20.918Z,24.80
2022-10-06T13:55:49.180Z,24.80
2022-10-06T13:58:19.020Z,24.70
2022-10-06T14:00:50.321Z,24.70
2022-10-06T14:03:24.157Z,24.70
2022-10-06T14:05:51.553Z,24.70
2022-10-06T14:08:24.977Z,24.70
2022-10-06T14:11:04.967Z,24.50
2022-10-06T14:13:37.817Z,24.40
2022-10-06T14:16:05.874Z,24.40
2022-10-06T14:21:27.481Z,24.40
2022-10-06T14:23:54.300Z,24.40
2022-10-06T14:26:28.892Z,24.30
2022-10-06T14:28:55.827Z,24.30
2022-10-06T14:31:23.110Z,24.30
2022-10-06T14:33:52.617Z,24.30
2022-10-06T14:36:32.431Z,24.30
2022-10-06T14:38:59.428Z,24.30
2022-10-06T14:41:27.885Z,24.30
2022-10-06T14:43:55.197Z,24.20
2022-10-06T14:46:22.307Z,24.20
2022-10-06T14:48:49.241Z,24.20
2022-10-06T14:51:16.922Z,24.10
2022-10-06T14:53:43.697Z,24.10
2022-10-06T14:56:13.662Z,24.00
2022-10-06T14:58:43.664Z,24.00
2022-10-06T15:01:11.016Z,23.90
2022-10-06T15:03:37.819Z,23.90
2022-10-06T15:06:23.912Z,23.80
2022-10-06T15:08:51.535Z,23.70
2022-10-06T15:11:19.154Z,23.60
2022-10-06T15:13:46.245Z,23.50
2022-10-06T15:16:13.714Z,23.50
2022-10-06T15:18:42.793Z,23.40
2022-10-06T15:21:10.167Z,23.30
2022-10-06T15:23:37.391Z,23.20
2022-10-06T15:26:23.123Z,23.10
2022-10-06T15:29:01.950Z,23.00
2022-10-06T15:31:28.756Z,22.90
2022-10-06T15:33:55.684Z,22.80
2022-10-06T15:36:24.013Z,22.60
2022-10-06T15:38:51.357Z,22.50
2022-10-06T15:41:18.462Z,22.40
2022-10-06T15:44:00.104Z,22.30
2022-10-06T15:46:38.270Z,22.20
2022-10-06T15:49:08.789Z,22.00
2022-10-06T15:51:36.683Z,21.90
2022-10-06T15:54:03.474Z,21.80
2022-10-06T15:56:31.796Z,21.60
2022-10-06T15:58:58.813Z,21.50
2022-10-06T16:01:26.545Z,21.30
2022-10-06T16:03:53.713Z,21.20
2022-10-06T16:06:30.320Z,21.10
2022-10-06T16:08:57.047Z,21.00
2022-10-06T16:11:23.792Z,20.90
2022-10-06T16:13:51.984Z,20.70
2022-10-06T16:16:18.812Z,20.50
2022-10-06T16:18:45.615Z,20.40
2022-10-06T16:21:12.354Z,20.40
2022-10-06T16:23:39.096Z,20.30
2022-10-06T16:26:06.004Z,20.20
2022-10-06T16:28:33.048Z,20.10
2022-10-06T16:30:59.941Z,20.10
2022-10-06T16:33:26.769Z,20.00
2022-10-06T16:35:56.830Z,19.80
2022-10-06T16:38:26.309Z,19.70
2022-10-06T16:40:54.110Z,19.60
2022-10-06T16:43:20.844Z,19.50
2022-10-06T16:46:01.806Z,19.50
2022-10-06T16:48:29.528Z,19.40
2022-10-06T16:51:22.343Z,19.30
2022-10-06T16:53:49.944Z,19.20
2022-10-06T16:56:17.860Z,19.10
2022-10-06T16:58:45.598Z,19.00
2022-10-06T17:01:12.847Z,19.00
2022-10-06T17:03:39.733Z,19.00
2022-10-06T17:06:07.803Z,18.80
2022-10-06T17:08:34.802Z,18.70
2022-10-06T17:11:09.166Z,18.70
2022-10-06T17:13:36.335Z,18.70
2022-10-06T17:16:04.537Z,18.60
2022-10-06T17:18:31.431Z,18.60
2022-10-06T17:20:58.904Z,18.50
2022-10-06T17:23:26.087Z,18.50
2022-10-06T17:26:06.021Z,18.40
2022-10-06T17:28:33.041Z,18.40
2022-10-06T17:30:59.910Z,18.40
2022-10-06T17:33:32.581Z,18.40
2022-10-06T17:36:18.307Z,18.40
2022-10-06T17:38:46.135Z,18.40
2022-10-06T17:41:17.053Z,18.30
2022-10-06T17:43:48.321Z,18.20
2022-10-06T17:46:16.058Z,18.20
2022-10-06T17:48:43.500Z,18.20
2022-10-06T17:51:11.199Z,18.20
2022-10-06T17:53:46.446Z,18.10
2022-10-06T17:56:14.050Z,18.10
2022-10-06T17:58:41.962Z,18.00
2022-10-06T18:01:12.795Z,18.00
2022-10-06T18:03:55.431Z,18.00
2022-10-06T18:06:27.957Z,18.10
2022-10-06T18:08:55.119Z,18.10
2022-10-06T18:11:36.204Z,18.00
2022-10-06T18:14:06.587Z,18.00
2022-10-06T18:16:36.564Z,17.90
2022-10-06T18:19:10.586Z,17.80
2022-10-06T18:21:39.667Z,17.70
2022-10-06T18:24:07.242Z,17.70
2022-10-06T18:26:38.333Z,17.60
2022-10-06T18:29:05.618Z,17.60
2022-10-06T18:31:32.486Z,17.60
2022-10-06T18:36:48.684Z,17.60
2022-10-06T18:39:35.297Z,17.60
2022-10-06T18:42:05.793Z,17.60
2022-10-06T18:44:50.992Z,17.60
2022-10-06T18:47:36.181Z,17.70
2022-10-06T18:50:02.999Z,17.60
2022-10-06T18:52:29.718Z,17.70
2022-10-06T18:54:56.434Z,17.60
2022-10-06T18:57:27.692Z,17.60
2022-10-06T18:59:55.219Z,17.60
2022-10-06T19:02:22.243Z,17.60
2022-10-06T19:04:49.097Z,17.60
2022-10-06T19:07:15.805Z,17.60
2022-10-06T19:09:46.464Z,17.60
2022-10-06T19:12:13.959Z,17.60
2022-10-06T19:14:47.224Z,17.60
2022-10-06T19:17:15.033Z,17.50
2022-10-06T19:19:42.415Z,17.50
2022-10-06T19:22:10.009Z,17.50
2022-10-06T19:24:37.588Z,17.40
2022-10-06T19:27:04.932Z,17.40
2022-10-06T19:29:37.049Z,17.40
2022-10-06T19:32:04.744Z,17.40
2022-10-06T19:34:32.861Z,17.30
2022-10-06T19:36:59.600Z,17.20
2022-10-06T19:39:30.895Z,17.10
2022-10-06T19:42:16.911Z,17.10
2022-10-06T19:44:43.651Z,17.10
2022-10-06T19:47:11.061Z,17.00
2022-10-06T19:49:40.517Z,17.00
2022-10-06T19:52:08.229Z,17.00
2022-10-06T19:54:35.263Z,16.90
2022-10-06T19:57:05.456Z,16.80
2022-10-06T19:59:32.576Z,16.70
2022-10-06T20:01:59.405Z,16.70
2022-10-06T20:04:56.572Z,16.60
2022-10-06T20:07:27.551Z,16.60
2022-10-06T20:09:54.845Z,16.60
2022-10-06T20:12:53.887Z,16.50
2022-10-06T20:15:20.642Z,16.50
2022-10-06T20:18:10.170Z,16.50
2022-10-06T20:20:36.920Z,16.40
2022-10-06T20:23:03.642Z,16.40
2022-10-06T20:25:31.209Z,16.40
2022-10-06T20:27:58.177Z,16.40
2022-10-06T20:30:24.937Z,16.30
2022-10-06T20:32:52.284Z,16.30
2022-10-06T20:35:19.038Z,16.30
2022-10-06T20:37:46.309Z,16.30
2022-10-06T20:40:31.965Z,16.20
2022-10-06T20:43:31.173Z,16.10
2022-10-06T20:45:57.977Z,16.10
2022-10-06T20:48:29.635Z,16.00
2022-10-06T20:50:56.496Z,16.00
2022-10-06T20:53:27.127Z,16.00
2022-10-06T20:55:53.917Z,15.90
2022-10-06T20:58:20.650Z,15.90
2022-10-06T21:00:47.414Z,15.80
2022-10-06T21:03:14.540Z,15.80
2022-10-06T21:05:47.538Z,15.70
2022-10-06T21:08:14.443Z,15.70
2022-10-06T21:10:41.297Z,15.70
2022-10-06T21:13:08.250Z,15.70
2022-10-06T21:15:35.061Z,15.70
2022-10-06T21:18:02.542Z,15.70
2022-10-06T21:20:29.359Z,15.60
2022-10-06T21:22:56.153Z,15.60
2022-10-06T21:25:22.978Z,15.50
2022-10-06T21:27:49.756Z,15.50
2022-10-06T21:30:16.573Z,15.50
2022-10-06T21:32:43.930Z,15.50
2022-10-06T21:35:10.749Z,15.50
2022-10-06T21:37:37.557Z,15.40
2022-10-06T21:40:04.794Z,15.40
2022-10-06T21:42:31.629Z,15.40
2022-10-06T21:44:58.450Z,15.40
2022-10-06T21:47:25.282Z,15.30
2022-10-06T21:49:52.105Z,15.30
2022-10-06T21:52:18.923Z,15.20
2022-10-06T21:54:45.731Z,15.30
2022-10-06T21:57:15.529Z,15.30
2022-10-06T21:59:42.324Z,15.30
2022-10-06T22:02:09.252Z,15.30
2022-10-06T22:04:36.138Z,15.20
2022-10-06T22:07:02.916Z,15.20
2022-10-06T22:09:29.825Z,15.20
2022-10-06T22:11:56.680Z,15.20
2022-10-06T22:14:23.454Z,15.10
2022-10-06T22:16:50.317Z,15.10
2022-10-06T22:19:18.072Z,15.10
2022-10-06T22:21:45.829Z,15.00
2022-10-06T22:24:13.533Z,15.00
2022-10-06T22:26:40.571Z,15.00
2022-10-06T22:29:08.012Z,15.00
2022-10-06T22:31:35.097Z,14.90
2022-10-06T22:34:02.246Z,14.90
2022-10-06T22:36:29.107Z,14.90
2022-10-06T22:38:56.069Z,14.90
2022-10-06T22:41:22.959Z,14.90
2022-10-06T22:43:49.823Z,14.90
2022-10-06T22:46:16.702Z,14.90
2022-10-06T22:48:43.570Z,14.90
2022-10-06T22:51:10.364Z,14.90
2022-10-06T22:53:37.140Z,14.90
2022-10-06T22:56:04.171Z,14.90
2022-10-06T22:58:31.087Z,14.90
2022-10-06T23:00:58.030Z,14.90
2022-10-06T23:03:24.971Z,14.80
2022-10-06T23:05:58.667Z,14.80
2022-10-06T23:08:25.639Z,14.80
2022-10-06T23:10:52.484Z,14.70
2022-10-06T23:13:19.345Z,14.70
2022-10-06T23:15:46.212Z,14.70
2022-10-06T23:18:13.053Z,14.70
2022-10-06T23:20:39.848Z,14.80
2022-10-06T23:23:06.731Z,14.80
2022-10-06T23:25:36.514Z,14.80
2022-10-06T23:28:03.526Z,14.80
2022-10-06T23:30:30.367Z,14.80
2022-10-06T23:32:57.173Z,14.70
2022-10-06T23:35:24.042Z,14.70
2022-10-06T23:37:50.891Z,14.60
2022-10-06T23:40:17.686Z,14.60
2022-10-06T23:42:44.517Z,14.60
2022-10-06T23:45:11.315Z,14.70
2022-10-06T23:47:38.135Z,14.70
2022-10-06T23:50:05.150Z,14.60
2022-10-06T23:52:31.990Z,14.60
2022-10-06T23:54:58.772Z,14.70
2022-10-06T23:57:25.584Z,14.70
2022-10-06T23:59:52.362Z,14.70
